Wetaug, Illinois
Current Conditions -  °F | °C
As of 6:15 AM on Friday 28 Nov 2014 (Local Time) from KCIR Reporting Station
Clear Clear  
Wind Chill: 24°   Ceiling: Unl
Heat Index: 32°   Visibility: 10mi
Dew Point: 26°   Wind: 9mph
Humidity: 80%   Direction: 150°SSE
Pressure: 30.38"   Gusts: NA
Location:  37.3713°N, 89.1162°W
Report Text: KCIR 281215Z AUTO 15008KT 10SM CLR 00/M03 A3038 RMK AO2 T10021032
Loading
Personal Weather Stations






























Interactive Weather Map New forecast layout! Learn more

10-Day Weather Forecast

Advertisements
Track Severe Weather on mobile